Kellyville, Oklahoma
Current Conditions -  °F | °C
As of 6:53 PM on Saturday 20 Dec 2014 (Local Time) from KRVS Reporting Station
Overcast Overcast  
Wind Chill: 39°   Ceiling: 1900
Heat Index: 43°   Visibility: 10mi
Dew Point: 37°   Wind: 7mph
Humidity: 80%   Direction: 210°SSW
Pressure: 30.19"   Gusts: NA
Location:  35.94°N, 96.21°W
Report Text: KRVS 210053Z 21006KT 10SM OVC019 06/03 A3019 RMK AO2 SLP232 T00610028
Loading
Personal Weather Stations






























Interactive Weather Map New forecast layout! Learn more

10-Day Weather Forecast

Advertisements
Track Severe Weather on mobile